sensor_id;sensor_type;location;lat;lon;timestamp;P1;durP1;ratioP1;P2;durP2;ratioP2
78312;SDS011;67568;47.438;21.408;2023-02-20T00:01:35;9.48;;;3.20;;
78312;SDS011;67568;47.438;21.408;2023-02-20T00:04:04;7.35;;;3.10;;
78312;SDS011;67568;47.438;21.408;2023-02-20T00:06:31;9.95;;;3.10;;
78312;SDS011;67568;47.438;21.408;2023-02-20T00:09:00;7.30;;;2.95;;
78312;SDS011;67568;47.438;21.408;2023-02-20T00:11:26;8.93;;;3.33;;
78312;SDS011;67568;47.438;21.408;2023-02-20T00:13:53;8.05;;;3.00;;
78312;SDS011;67568;47.438;21.408;2023-02-20T00:16:20;8.98;;;3.35;;
78312;SDS011;67568;47.438;21.408;2023-02-20T00:18:49;6.63;;;2.92;;
78312;SDS011;67568;47.438;21.408;2023-02-20T00:21:15;8.48;;;2.90;;
78312;SDS011;67568;47.438;21.408;2023-02-20T00:23:42;8.77;;;3.05;;
78312;SDS011;67568;47.438;21.408;2023-02-20T00:26:12;9.02;;;2.95;;
78312;SDS011;67568;47.438;21.408;2023-02-20T00:28:41;9.40;;;3.00;;
78312;SDS011;67568;47.438;21.408;2023-02-20T00:31:10;9.63;;;3.42;;
78312;SDS011;67568;47.438;21.408;2023-02-20T00:33:39;7.95;;;3.25;;
78312;SDS011;67568;47.438;21.408;2023-02-20T00:36:06;8.73;;;2.67;;
78312;SDS011;67568;47.438;21.408;2023-02-20T00:38:35;7.95;;;3.25;;
78312;SDS011;67568;47.438;21.408;2023-02-20T00:41:02;10.07;;;3.25;;
78312;SDS011;67568;47.438;21.408;2023-02-20T00:43:29;9.32;;;3.05;;
78312;SDS011;67568;47.438;21.408;2023-02-20T00:45:55;9.23;;;3.45;;
78312;SDS011;67568;47.438;21.408;2023-02-20T00:48:22;8.43;;;3.45;;
78312;SDS011;67568;47.438;21.408;2023-02-20T00:50:48;8.30;;;3.10;;
78312;SDS011;67568;47.438;21.408;2023-02-20T00:53:18;8.52;;;3.40;;
78312;SDS011;67568;47.438;21.408;2023-02-20T00:55:45;9.30;;;3.63;;
78312;SDS011;67568;47.438;21.408;2023-02-20T00:58:11;8.05;;;3.58;;
78312;SDS011;67568;47.438;21.408;2023-02-20T01:00:38;8.80;;;3.80;;
78312;SDS011;67568;47.438;21.408;2023-02-20T01:03:06;10.40;;;4.07;;
78312;SDS011;67568;47.438;21.408;2023-02-20T01:05:32;8.90;;;4.10;;
78312;SDS011;67568;47.438;21.408;2023-02-20T01:07:59;10.00;;;3.65;;
78312;SDS011;67568;47.438;21.408;2023-02-20T01:10:25;10.68;;;3.45;;
78312;SDS011;67568;47.438;21.408;2023-02-20T01:12:55;10.85;;;3.83;;
78312;SDS011;67568;47.438;21.408;2023-02-20T01:15:21;13.32;;;4.35;;
78312;SDS011;67568;47.438;21.408;2023-02-20T01:17:48;8.63;;;3.75;;
78312;SDS011;67568;47.438;21.408;2023-02-20T01:20:15;8.70;;;3.50;;
78312;SDS011;67568;47.438;21.408;2023-02-20T01:22:41;9.10;;;3.60;;
78312;SDS011;67568;47.438;21.408;2023-02-20T01:25:11;9.55;;;3.20;;
78312;SDS011;67568;47.438;21.408;2023-02-20T01:27:38;7.72;;;3.13;;
78312;SDS011;67568;47.438;21.408;2023-02-20T01:30:05;8.68;;;3.60;;
78312;SDS011;67568;47.438;21.408;2023-02-20T01:32:32;8.77;;;3.38;;
78312;SDS011;67568;47.438;21.408;2023-02-20T01:34:59;9.10;;;3.72;;
78312;SDS011;67568;47.438;21.408;2023-02-20T01:37:25;9.40;;;3.55;;
78312;SDS011;67568;47.438;21.408;2023-02-20T01:39:52;7.75;;;3.40;;
78312;SDS011;67568;47.438;21.408;2023-02-20T01:42:20;11.05;;;3.60;;
78312;SDS011;67568;47.438;21.408;2023-02-20T01:44:49;10.15;;;3.60;;
78312;SDS011;67568;47.438;21.408;2023-02-20T01:47:20;10.88;;;3.78;;
78312;SDS011;67568;47.438;21.408;2023-02-20T01:49:49;10.02;;;4.18;;
78312;SDS011;67568;47.438;21.408;2023-02-20T01:52:25;13.48;;;5.65;;
78312;SDS011;67568;47.438;21.408;2023-02-20T01:57:43;15.00;;;5.18;;
78312;SDS011;67568;47.438;21.408;2023-02-20T02:00:16;12.65;;;5.45;;
78312;SDS011;67568;47.438;21.408;2023-02-20T02:02:52;12.05;;;5.45;;
78312;SDS011;67568;47.438;21.408;2023-02-20T02:05:24;13.70;;;5.75;;
78312;SDS011;67568;47.438;21.408;2023-02-20T02:07:52;11.27;;;5.50;;
78312;SDS011;67568;47.438;21.408;2023-02-20T02:10:23;9.82;;;4.65;;
78312;SDS011;67568;47.438;21.408;2023-02-20T02:12:54;11.70;;;4.18;;
78312;SDS011;67568;47.438;21.408;2023-02-20T02:15:22;10.13;;;4.28;;
78312;SDS011;67568;47.438;21.408;2023-02-20T02:32:40;12.68;;;5.70;;
78312;SDS011;67568;47.438;21.408;2023-02-20T02:46:54;9.60;;;3.90;;
78312;SDS011;67568;47.438;21.408;2023-02-20T02:51:54;10.23;;;4.30;;
78312;SDS011;67568;47.438;21.408;2023-02-20T02:54:24;7.68;;;4.15;;
78312;SDS011;67568;47.438;21.408;2023-02-20T02:56:53;12.35;;;4.25;;
78312;SDS011;67568;47.438;21.408;2023-02-20T02:59:40;11.00;;;4.30;;
78312;SDS011;67568;47.438;21.408;2023-02-20T03:02:08;10.20;;;4.30;;
78312;SDS011;67568;47.438;21.408;2023-02-20T03:04:39;10.20;;;4.75;;
78312;SDS011;67568;47.438;21.408;2023-02-20T03:07:12;8.23;;;3.83;;
78312;SDS011;67568;47.438;21.408;2023-02-20T03:09:43;10.00;;;4.50;;
78312;SDS011;67568;47.438;21.408;2023-02-20T03:12:19;12.95;;;5.45;;
78312;SDS011;67568;47.438;21.408;2023-02-20T03:14:57;12.15;;;5.60;;
78312;SDS011;67568;47.438;21.408;2023-02-20T03:17:30;10.07;;;5.10;;
78312;SDS011;67568;47.438;21.408;2023-02-20T03:20:07;11.90;;;5.18;;
78312;SDS011;67568;47.438;21.408;2023-02-20T03:22:38;13.60;;;4.72;;
78312;SDS011;67568;47.438;21.408;2023-02-20T03:25:11;11.27;;;4.35;;
78312;SDS011;67568;47.438;21.408;2023-02-20T03:27:43;10.27;;;4.45;;
78312;SDS011;67568;47.438;21.408;2023-02-20T03:30:27;9.38;;;4.22;;
78312;SDS011;67568;47.438;21.408;2023-02-20T03:33:04;11.95;;;4.50;;
78312;SDS011;67568;47.438;21.408;2023-02-20T03:35:37;8.90;;;4.45;;
78312;SDS011;67568;47.438;21.408;2023-02-20T03:38:07;9.25;;;4.03;;
78312;SDS011;67568;47.438;21.408;2023-02-20T03:40:35;9.65;;;4.43;;
78312;SDS011;67568;47.438;21.408;2023-02-20T03:43:05;12.35;;;4.22;;
78312;SDS011;67568;47.438;21.408;2023-02-20T03:45:37;10.45;;;4.25;;
78312;SDS011;67568;47.438;21.408;2023-02-20T03:48:08;10.55;;;4.47;;
78312;SDS011;67568;47.438;21.408;2023-02-20T03:50:40;17.73;;;5.82;;
78312;SDS011;67568;47.438;21.408;2023-02-20T03:53:06;32.00;;;9.55;;
78312;SDS011;67568;47.438;21.408;2023-02-20T03:55:33;32.20;;;10.00;;
78312;SDS011;67568;47.438;21.408;2023-02-20T03:58:01;18.85;;;6.80;;
78312;SDS011;67568;47.438;21.408;2023-02-20T04:00:35;17.92;;;6.28;;
78312;SDS011;67568;47.438;21.408;2023-02-20T04:03:14;9.00;;;4.00;;
78312;SDS011;67568;47.438;21.408;2023-02-20T04:05:45;8.88;;;3.92;;
78312;SDS011;67568;47.438;21.408;2023-02-20T04:08:17;10.05;;;4.22;;
78312;SDS011;67568;47.438;21.408;2023-02-20T04:10:49;9.98;;;4.63;;
78312;SDS011;67568;47.438;21.408;2023-02-20T04:13:29;8.00;;;4.13;;
78312;SDS011;67568;47.438;21.408;2023-02-20T04:15:58;9.40;;;4.28;;
78312;SDS011;67568;47.438;21.408;2023-02-20T04:18:28;10.88;;;4.40;;
78312;SDS011;67568;47.438;21.408;2023-02-20T04:20:56;10.23;;;3.90;;
78312;SDS011;67568;47.438;21.408;2023-02-20T04:23:25;8.90;;;3.90;;
78312;SDS011;67568;47.438;21.408;2023-02-20T04:26:13;10.82;;;4.57;;
78312;SDS011;67568;47.438;21.408;2023-02-20T04:28:44;12.48;;;4.35;;
78312;SDS011;67568;47.438;21.408;2023-02-20T04:31:11;9.13;;;4.32;;
78312;SDS011;67568;47.438;21.408;2023-02-20T04:33:40;8.63;;;4.70;;
78312;SDS011;67568;47.438;21.408;2023-02-20T04:36:07;9.27;;;4.22;;
78312;SDS011;67568;47.438;21.408;2023-02-20T04:38:34;9.50;;;3.85;;
78312;SDS011;67568;47.438;21.408;2023-02-20T04:41:01;11.07;;;4.20;;
78312;SDS011;67568;47.438;21.408;2023-02-20T04:43:30;9.00;;;4.38;;
78312;SDS011;67568;47.438;21.408;2023-02-20T04:45:57;12.15;;;4.85;;
78312;SDS011;67568;47.438;21.408;2023-02-20T04:48:24;9.02;;;4.10;;
78312;SDS011;67568;47.438;21.408;2023-02-20T04:50:50;10.18;;;4.70;;
78312;SDS011;67568;47.438;21.408;2023-02-20T04:53:17;14.73;;;5.32;;
78312;SDS011;67568;47.438;21.408;2023-02-20T04:55:44;12.32;;;5.03;;
78312;SDS011;67568;47.438;21.408;2023-02-20T04:58:10;14.43;;;5.30;;
78312;SDS011;67568;47.438;21.408;2023-02-20T05:00:40;11.82;;;4.93;;
78312;SDS011;67568;47.438;21.408;2023-02-20T05:03:06;12.13;;;4.63;;
78312;SDS011;67568;47.438;21.408;2023-02-20T05:05:33;10.73;;;4.80;;
78312;SDS011;67568;47.438;21.408;2023-02-20T05:08:04;10.95;;;4.72;;
78312;SDS011;67568;47.438;21.408;2023-02-20T05:10:34;9.85;;;4.60;;
78312;SDS011;67568;47.438;21.408;2023-02-20T05:13:01;9.13;;;4.63;;
78312;SDS011;67568;47.438;21.408;2023-02-20T05:15:29;8.93;;;4.65;;
78312;SDS011;67568;47.438;21.408;2023-02-20T05:18:02;9.05;;;4.10;;
78312;SDS011;67568;47.438;21.408;2023-02-20T05:20:29;9.57;;;4.32;;
78312;SDS011;67568;47.438;21.408;2023-02-20T05:22:55;9.52;;;4.20;;
78312;SDS011;67568;47.438;21.408;2023-02-20T05:25:22;9.68;;;4.68;;
78312;SDS011;67568;47.438;21.408;2023-02-20T05:27:49;10.65;;;4.55;;
78312;SDS011;67568;47.438;21.408;2023-02-20T05:30:15;11.23;;;4.00;;
78312;SDS011;67568;47.438;21.408;2023-02-20T05:32:42;9.60;;;4.25;;
78312;SDS011;67568;47.438;21.408;2023-02-20T05:35:09;11.40;;;4.90;;
78312;SDS011;67568;47.438;21.408;2023-02-20T05:37:35;9.13;;;3.63;;
78312;SDS011;67568;47.438;21.408;2023-02-20T05:40:02;9.55;;;4.57;;
78312;SDS011;67568;47.438;21.408;2023-02-20T05:42:29;9.30;;;4.00;;
78312;SDS011;67568;47.438;21.408;2023-02-20T05:44:55;8.15;;;3.38;;
78312;SDS011;67568;47.438;21.408;2023-02-20T05:47:22;9.38;;;3.67;;
78312;SDS011;67568;47.438;21.408;2023-02-20T05:49:49;8.38;;;3.80;;
78312;SDS011;67568;47.438;21.408;2023-02-20T05:52:15;8.55;;;4.05;;
78312;SDS011;67568;47.438;21.408;2023-02-20T05:54:44;8.82;;;3.50;;
78312;SDS011;67568;47.438;21.408;2023-02-20T05:57:11;8.88;;;3.78;;
78312;SDS011;67568;47.438;21.408;2023-02-20T05:59:38;11.77;;;4.63;;
78312;SDS011;67568;47.438;21.408;2023-02-20T06:02:05;12.30;;;5.07;;
78312;SDS011;67568;47.438;21.408;2023-02-20T06:04:35;8.25;;;4.20;;
78312;SDS011;67568;47.438;21.408;2023-02-20T06:07:02;9.30;;;4.13;;
78312;SDS011;67568;47.438;21.408;2023-02-20T06:09:28;8.40;;;3.83;;
78312;SDS011;67568;47.438;21.408;2023-02-20T06:11:55;8.25;;;3.42;;
78312;SDS011;67568;47.438;21.408;2023-02-20T06:14:23;8.20;;;3.67;;
78312;SDS011;67568;47.438;21.408;2023-02-20T06:16:50;7.90;;;3.47;;
78312;SDS011;67568;47.438;21.408;2023-02-20T06:19:20;8.93;;;3.72;;
78312;SDS011;67568;47.438;21.408;2023-02-20T06:21:50;9.70;;;4.07;;
78312;SDS011;67568;47.438;21.408;2023-02-20T06:24:18;9.90;;;4.15;;
78312;SDS011;67568;47.438;21.408;2023-02-20T06:26:46;8.05;;;4.20;;
78312;SDS011;67568;47.438;21.408;2023-02-20T06:29:16;10.35;;;3.63;;
78312;SDS011;67568;47.438;21.408;2023-02-20T06:31:43;7.32;;;3.60;;
78312;SDS011;67568;47.438;21.408;2023-02-20T06:34:12;8.15;;;4.10;;
78312;SDS011;67568;47.438;21.408;2023-02-20T06:36:42;10.63;;;4.15;;
78312;SDS011;67568;47.438;21.408;2023-02-20T06:39:11;7.93;;;3.83;;
78312;SDS011;67568;47.438;21.408;2023-02-20T06:41:38;6.43;;;2.95;;
78312;SDS011;67568;47.438;21.408;2023-02-20T06:44:08;7.40;;;2.50;;
78312;SDS011;67568;47.438;21.408;2023-02-20T06:46:38;6.88;;;2.45;;
78312;SDS011;67568;47.438;21.408;2023-02-20T06:49:05;6.80;;;2.75;;
78312;SDS011;67568;47.438;21.408;2023-02-20T06:51:32;7.20;;;2.50;;
78312;SDS011;67568;47.438;21.408;2023-02-20T06:54:00;8.80;;;3.08;;
78312;SDS011;67568;47.438;21.408;2023-02-20T06:56:30;7.70;;;3.00;;
78312;SDS011;67568;47.438;21.408;2023-02-20T06:58:58;7.32;;;2.95;;
78312;SDS011;67568;47.438;21.408;2023-02-20T07:01:28;6.90;;;2.47;;
78312;SDS011;67568;47.438;21.408;2023-02-20T07:03:56;5.95;;;2.58;;
78312;SDS011;67568;47.438;21.408;2023-02-20T07:06:27;5.90;;;2.47;;
78312;SDS011;67568;47.438;21.408;2023-02-20T07:08:53;7.00;;;2.70;;
78312;SDS011;67568;47.438;21.408;2023-02-20T07:11:20;9.35;;;2.80;;
78312;SDS011;67568;47.438;21.408;2023-02-20T07:13:48;6.22;;;2.28;;
78312;SDS011;67568;47.438;21.408;2023-02-20T07:16:15;8.00;;;2.63;;
78312;SDS011;67568;47.438;21.408;2023-02-20T07:18:45;6.65;;;2.08;;
78312;SDS011;67568;47.438;21.408;2023-02-20T07:21:13;7.03;;;2.38;;
78312;SDS011;67568;47.438;21.408;2023-02-20T07:23:40;8.05;;;2.42;;
78312;SDS011;67568;47.438;21.408;2023-02-20T07:26:12;6.50;;;1.80;;
78312;SDS011;67568;47.438;21.408;2023-02-20T07:28:50;5.47;;;1.98;;
78312;SDS011;67568;47.438;21.408;2023-02-20T07:31:20;8.90;;;2.38;;
78312;SDS011;67568;47.438;21.408;2023-02-20T07:33:50;6.00;;;2.03;;
78312;SDS011;67568;47.438;21.408;2023-02-20T07:36:19;6.38;;;1.80;;
78312;SDS011;67568;47.438;21.408;2023-02-20T07:38:55;4.85;;;1.80;;
78312;SDS011;67568;47.438;21.408;2023-02-20T07:41:26;7.68;;;1.95;;
78312;SDS011;67568;47.438;21.408;2023-02-20T07:43:54;6.13;;;2.00;;
78312;SDS011;67568;47.438;21.408;2023-02-20T07:46:23;6.38;;;2.13;;
78312;SDS011;67568;47.438;21.408;2023-02-20T07:48:52;7.10;;;1.90;;
78312;SDS011;67568;47.438;21.408;2023-02-20T07:51:22;5.55;;;1.95;;
78312;SDS011;67568;47.438;21.408;2023-02-20T07:53:49;6.83;;;1.80;;
78312;SDS011;67568;47.438;21.408;2023-02-20T07:56:17;8.00;;;2.40;;
78312;SDS011;67568;47.438;21.408;2023-02-20T07:58:48;6.05;;;2.00;;
78312;SDS011;67568;47.438;21.408;2023-02-20T08:01:26;8.73;;;2.20;;
78312;SDS011;67568;47.438;21.408;2023-02-20T08:03:54;7.97;;;2.10;;
78312;SDS011;67568;47.438;21.408;2023-02-20T08:06:21;5.70;;;2.20;;
78312;SDS011;67568;47.438;21.408;2023-02-20T08:08:57;7.10;;;1.85;;
78312;SDS011;67568;47.438;21.408;2023-02-20T08:11:24;5.78;;;1.92;;
78312;SDS011;67568;47.438;21.408;2023-02-20T08:13:51;7.88;;;1.80;;
78312;SDS011;67568;47.438;21.408;2023-02-20T08:16:21;4.72;;;1.90;;
78312;SDS011;67568;47.438;21.408;2023-02-20T08:18:47;6.40;;;1.90;;
78312;SDS011;67568;47.438;21.408;2023-02-20T08:21:18;7.30;;;1.90;;
78312;SDS011;67568;47.438;21.408;2023-02-20T08:23:45;6.05;;;1.98;;
78312;SDS011;67568;47.438;21.408;2023-02-20T08:26:14;4.35;;;1.58;;
78312;SDS011;67568;47.438;21.408;2023-02-20T08:28:46;6.78;;;2.00;;
78312;SDS011;67568;47.438;21.408;2023-02-20T08:31:17;6.57;;;1.90;;
78312;SDS011;67568;47.438;21.408;2023-02-20T08:33:57;8.18;;;1.90;;
78312;SDS011;67568;47.438;21.408;2023-02-20T08:36:26;6.50;;;1.70;;
78312;SDS011;67568;47.438;21.408;2023-02-20T08:38:53;8.20;;;2.15;;
78312;SDS011;67568;47.438;21.408;2023-02-20T08:41:19;6.35;;;2.05;;
78312;SDS011;67568;47.438;21.408;2023-02-20T08:43:49;4.87;;;1.60;;
78312;SDS011;67568;47.438;21.408;2023-02-20T08:46:15;5.47;;;2.30;;
78312;SDS011;67568;47.438;21.408;2023-02-20T08:48:43;6.85;;;1.80;;
78312;SDS011;67568;47.438;21.408;2023-02-20T08:51:17;4.85;;;1.80;;
78312;SDS011;67568;47.438;21.408;2023-02-20T08:53:49;4.75;;;1.63;;
78312;SDS011;67568;47.438;21.408;2023-02-20T08:56:17;6.93;;;1.80;;
78312;SDS011;67568;47.438;21.408;2023-02-20T08:58:46;4.03;;;1.60;;
78312;SDS011;67568;47.438;21.408;2023-02-20T09:01:13;6.85;;;1.67;;
78312;SDS011;67568;47.438;21.408;2023-02-20T09:03:40;8.65;;;2.17;;
78312;SDS011;67568;47.438;21.408;2023-02-20T09:06:07;7.63;;;1.77;;
78312;SDS011;67568;47.438;21.408;2023-02-20T09:08:36;7.03;;;2.00;;
78312;SDS011;67568;47.438;21.408;2023-02-20T09:11:03;7.93;;;1.95;;
78312;SDS011;67568;47.438;21.408;2023-02-20T09:13:30;6.05;;;2.08;;
78312;SDS011;67568;47.438;21.408;2023-02-20T09:15:56;7.80;;;2.28;;
78312;SDS011;67568;47.438;21.408;2023-02-20T09:18:26;5.63;;;2.10;;
78312;SDS011;67568;47.438;21.408;2023-02-20T09:20:54;6.20;;;1.97;;
78312;SDS011;67568;47.438;21.408;2023-02-20T09:23:21;13.68;;;2.47;;
78312;SDS011;67568;47.438;21.408;2023-02-20T09:25:47;6.90;;;2.30;;
78312;SDS011;67568;47.438;21.408;2023-02-20T09:28:14;8.60;;;2.10;;
78312;SDS011;67568;47.438;21.408;2023-02-20T09:30:41;7.50;;;2.40;;
78312;SDS011;67568;47.438;21.408;2023-02-20T09:33:07;6.13;;;2.30;;
78312;SDS011;67568;47.438;21.408;2023-02-20T09:35:34;8.95;;;2.33;;
78312;SDS011;67568;47.438;21.408;2023-02-20T09:38:01;8.32;;;2.55;;
78312;SDS011;67568;47.438;21.408;2023-02-20T09:40:28;8.93;;;2.17;;
78312;SDS011;67568;47.438;21.408;2023-02-20T09:48:57;6.20;;;1.90;;
78312;SDS011;67568;47.438;21.408;2023-02-20T09:51:33;7.53;;;2.20;;
78312;SDS011;67568;47.438;21.408;2023-02-20T09:56:49;6.40;;;1.95;;
78312;SDS011;67568;47.438;21.408;2023-02-20T09:59:23;7.23;;;1.80;;
78312;SDS011;67568;47.438;21.408;2023-02-20T10:01:54;7.18;;;2.20;;
78312;SDS011;67568;47.438;21.408;2023-02-20T10:04:49;7.32;;;2.40;;
78312;SDS011;67568;47.438;21.408;2023-02-20T10:09:56;6.28;;;2.35;;
78312;SDS011;67568;47.438;21.408;2023-02-20T10:17:48;4.97;;;1.85;;
78312;SDS011;67568;47.438;21.408;2023-02-20T10:20:35;7.32;;;2.50;;
78312;SDS011;67568;47.438;21.408;2023-02-20T10:25:46;6.63;;;2.20;;
78312;SDS011;67568;47.438;21.408;2023-02-20T10:28:17;8.18;;;2.20;;
78312;SDS011;67568;47.438;21.408;2023-02-20T10:33:40;8.20;;;2.28;;
78312;SDS011;67568;47.438;21.408;2023-02-20T10:39:01;7.27;;;2.50;;
78312;SDS011;67568;47.438;21.408;2023-02-20T10:41:41;7.00;;;2.00;;
78312;SDS011;67568;47.438;21.408;2023-02-20T10:44:29;6.32;;;1.70;;
78312;SDS011;67568;47.438;21.408;2023-02-20T10:47:13;9.85;;;2.90;;
78312;SDS011;67568;47.438;21.408;2023-02-20T10:49:56;8.15;;;2.40;;
78312;SDS011;67568;47.438;21.408;2023-02-20T10:52:27;7.47;;;3.13;;
78312;SDS011;67568;47.438;21.408;2023-02-20T10:57:40;8.57;;;2.75;;
78312;SDS011;67568;47.438;21.408;2023-02-20T11:00:17;7.03;;;2.72;;
78312;SDS011;67568;47.438;21.408;2023-02-20T11:02:51;10.50;;;2.80;;
78312;SDS011;67568;47.438;21.408;2023-02-20T11:05:24;7.83;;;3.27;;
78312;SDS011;67568;47.438;21.408;2023-02-20T11:07:59;9.20;;;2.58;;
78312;SDS011;67568;47.438;21.408;2023-02-20T11:10:26;6.53;;;2.70;;
78312;SDS011;67568;47.438;21.408;2023-02-20T11:12:55;9.18;;;2.90;;
78312;SDS011;67568;47.438;21.408;2023-02-20T11:15:23;8.80;;;3.13;;
78312;SDS011;67568;47.438;21.408;2023-02-20T11:17:54;10.40;;;3.00;;
78312;SDS011;67568;47.438;21.408;2023-02-20T11:23:43;8.40;;;2.90;;
78312;SDS011;67568;47.438;21.408;2023-02-20T11:28:56;10.00;;;3.33;;
78312;SDS011;67568;47.438;21.408;2023-02-20T11:31:27;9.90;;;3.20;;
78312;SDS011;67568;47.438;21.408;2023-02-20T11:33:54;8.20;;;3.00;;
78312;SDS011;67568;47.438;21.408;2023-02-20T11:36:23;9.27;;;3.30;;
78312;SDS011;67568;47.438;21.408;2023-02-20T11:38:56;8.60;;;3.22;;
78312;SDS011;67568;47.438;21.408;2023-02-20T11:47:10;6.55;;;2.90;;
78312;SDS011;67568;47.438;21.408;2023-02-20T11:49:44;7.35;;;2.85;;
78312;SDS011;67568;47.438;21.408;2023-02-20T11:52:15;6.78;;;2.75;;
78312;SDS011;67568;47.438;21.408;2023-02-20T11:54:46;9.68;;;3.00;;
78312;SDS011;67568;47.438;21.408;2023-02-20T11:57:33;9.37;;;3.23;;
78312;SDS011;67568;47.438;21.408;2023-02-20T12:05:17;9.38;;;3.35;;
78312;SDS011;67568;47.438;21.408;2023-02-20T12:10:26;7.57;;;3.27;;
78312;SDS011;67568;47.438;21.408;2023-02-20T12:13:03;9.35;;;3.13;;
78312;SDS011;67568;47.438;21.408;2023-02-20T12:15:32;8.23;;;3.13;;
78312;SDS011;67568;47.438;21.408;2023-02-20T12:20:39;7.88;;;3.00;;
78312;SDS011;67568;47.438;21.408;2023-02-20T12:31:36;6.95;;;2.92;;
78312;SDS011;67568;47.438;21.408;2023-02-20T12:37:16;7.30;;;2.60;;
78312;SDS011;67568;47.438;21.408;2023-02-20T12:40:12;9.25;;;2.70;;
78312;SDS011;67568;47.438;21.408;2023-02-20T12:43:04;7.57;;;2.88;;
78312;SDS011;67568;47.438;21.408;2023-02-20T12:45:51;7.60;;;2.72;;
78312;SDS011;67568;47.438;21.408;2023-02-20T12:51:13;6.53;;;2.83;;
78312;SDS011;67568;47.438;21.408;2023-02-20T12:54:34;7.30;;;2.65;;
78312;SDS011;67568;47.438;21.408;2023-02-20T13:00:14;7.22;;;3.00;;
78312;SDS011;67568;47.438;21.408;2023-02-20T13:02:30;6.72;;;2.70;;
78312;SDS011;67568;47.438;21.408;2023-02-20T13:05:10;8.83;;;2.90;;
78312;SDS011;67568;47.438;21.408;2023-02-20T13:07:49;7.72;;;2.83;;
78312;SDS011;67568;47.438;21.408;2023-02-20T13:12:50;8.32;;;3.33;;
78312;SDS011;67568;47.438;21.408;2023-02-20T13:18:30;6.10;;;2.73;;
78312;SDS011;67568;47.438;21.408;2023-02-20T13:21:00;9.50;;;3.17;;
78312;SDS011;67568;47.438;21.408;2023-02-20T13:23:33;12.93;;;3.83;;
78312;SDS011;67568;47.438;21.408;2023-02-20T13:26:02;8.90;;;3.20;;
78312;SDS011;67568;47.438;21.408;2023-02-20T13:31:54;8.57;;;3.43;;
78312;SDS011;67568;47.438;21.408;2023-02-20T13:34:30;11.95;;;3.63;;
78312;SDS011;67568;47.438;21.408;2023-02-20T13:37:00;7.68;;;3.47;;
78312;SDS011;67568;47.438;21.408;2023-02-20T13:41:58;10.60;;;3.45;;
78312;SDS011;67568;47.438;21.408;2023-02-20T13:47:02;8.48;;;3.75;;
78312;SDS011;67568;47.438;21.408;2023-02-20T13:49:52;7.25;;;3.58;;
78312;SDS011;67568;47.438;21.408;2023-02-20T13:52:41;8.57;;;3.33;;
78312;SDS011;67568;47.438;21.408;2023-02-20T13:57:53;8.73;;;3.40;;
78312;SDS011;67568;47.438;21.408;2023-02-20T14:00:24;10.27;;;4.30;;
78312;SDS011;67568;47.438;21.408;2023-02-20T14:02:54;12.50;;;3.78;;
78312;SDS011;67568;47.438;21.408;2023-02-20T14:05:29;7.30;;;3.13;;
78312;SDS011;67568;47.438;21.408;2023-02-20T14:07:58;10.27;;;3.67;;
78312;SDS011;67568;47.438;21.408;2023-02-20T14:10:35;8.40;;;3.73;;
78312;SDS011;67568;47.438;21.408;2023-02-20T14:13:14;10.93;;;4.10;;
78312;SDS011;67568;47.438;21.408;2023-02-20T14:15:53;9.40;;;4.57;;
78312;SDS011;67568;47.438;21.408;2023-02-20T14:18:29;8.02;;;3.50;;
78312;SDS011;67568;47.438;21.408;2023-02-20T14:23:34;9.23;;;3.20;;
78312;SDS011;67568;47.438;21.408;2023-02-20T14:26:02;7.82;;;3.25;;
78312;SDS011;67568;47.438;21.408;2023-02-20T14:28:32;8.77;;;3.60;;
78312;SDS011;67568;47.438;21.408;2023-02-20T14:33:44;12.02;;;4.78;;
78312;SDS011;67568;47.438;21.408;2023-02-20T14:41:39;10.65;;;5.10;;
78312;SDS011;67568;47.438;21.408;2023-02-20T14:44:16;10.18;;;3.95;;
78312;SDS011;67568;47.438;21.408;2023-02-20T14:46:43;11.40;;;5.00;;
78312;SDS011;67568;47.438;21.408;2023-02-20T14:49:12;14.33;;;5.80;;
78312;SDS011;67568;47.438;21.408;2023-02-20T14:51:41;11.35;;;4.07;;
78312;SDS011;67568;47.438;21.408;2023-02-20T14:56:43;10.10;;;3.95;;
78312;SDS011;67568;47.438;21.408;2023-02-20T14:59:14;10.38;;;3.97;;
78312;SDS011;67568;47.438;21.408;2023-02-20T15:01:42;8.73;;;3.83;;
78312;SDS011;67568;47.438;21.408;2023-02-20T15:04:12;8.68;;;3.63;;
78312;SDS011;67568;47.438;21.408;2023-02-20T15:06:42;9.77;;;3.83;;
78312;SDS011;67568;47.438;21.408;2023-02-20T15:09:11;9.05;;;3.78;;
78312;SDS011;67568;47.438;21.408;2023-02-20T15:11:52;7.93;;;3.28;;
78312;SDS011;67568;47.438;21.408;2023-02-20T15:14:24;8.83;;;3.83;;
78312;SDS011;67568;47.438;21.408;2023-02-20T15:19:39;9.13;;;3.33;;
78312;SDS011;67568;47.438;21.408;2023-02-20T15:24:48;8.52;;;3.00;;
78312;SDS011;67568;47.438;21.408;2023-02-20T15:27:16;9.13;;;3.47;;
78312;SDS011;67568;47.438;21.408;2023-02-20T15:29:45;10.50;;;3.30;;
78312;SDS011;67568;47.438;21.408;2023-02-20T15:32:20;8.02;;;3.38;;
78312;SDS011;67568;47.438;21.408;2023-02-20T15:34:50;8.95;;;3.80;;
78312;SDS011;67568;47.438;21.408;2023-02-20T15:37:23;7.80;;;3.90;;
78312;SDS011;67568;47.438;21.408;2023-02-20T15:40:18;9.70;;;3.80;;
78312;SDS011;67568;47.438;21.408;2023-02-20T15:42:51;10.68;;;4.20;;
78312;SDS011;67568;47.438;21.408;2023-02-20T15:45:18;10.70;;;4.40;;
78312;SDS011;67568;47.438;21.408;2023-02-20T15:47:45;10.35;;;4.32;;
78312;SDS011;67568;47.438;21.408;2023-02-20T15:50:12;10.57;;;4.80;;
78312;SDS011;67568;47.438;21.408;2023-02-20T15:52:38;12.73;;;5.50;;
78312;SDS011;67568;47.438;21.408;2023-02-20T15:55:05;12.90;;;5.43;;
78312;SDS011;67568;47.438;21.408;2023-02-20T15:57:41;12.02;;;5.13;;
78312;SDS011;67568;47.438;21.408;2023-02-20T16:00:10;11.13;;;4.35;;
78312;SDS011;67568;47.438;21.408;2023-02-20T16:03:03;12.30;;;5.32;;
78312;SDS011;67568;47.438;21.408;2023-02-20T16:05:29;14.40;;;5.37;;
78312;SDS011;67568;47.438;21.408;2023-02-20T16:07:56;14.75;;;5.80;;
78312;SDS011;67568;47.438;21.408;2023-02-20T16:10:23;11.80;;;5.03;;
78312;SDS011;67568;47.438;21.408;2023-02-20T16:12:52;15.15;;;6.00;;
78312;SDS011;67568;47.438;21.408;2023-02-20T16:15:22;12.95;;;4.93;;
78312;SDS011;67568;47.438;21.408;2023-02-20T16:17:48;15.83;;;5.57;;
78312;SDS011;67568;47.438;21.408;2023-02-20T16:20:17;14.50;;;5.28;;
78312;SDS011;67568;47.438;21.408;2023-02-20T16:22:47;14.65;;;5.93;;
78312;SDS011;67568;47.438;21.408;2023-02-20T16:25:14;16.20;;;5.60;;
78312;SDS011;67568;47.438;21.408;2023-02-20T16:27:43;18.00;;;5.97;;
78312;SDS011;67568;47.438;21.408;2023-02-20T16:30:15;19.10;;;6.40;;
78312;SDS011;67568;47.438;21.408;2023-02-20T16:32:58;14.90;;;5.63;;
78312;SDS011;67568;47.438;21.408;2023-02-20T16:35:25;11.48;;;4.95;;
78312;SDS011;67568;47.438;21.408;2023-02-20T16:37:52;10.95;;;4.55;;
78312;SDS011;67568;47.438;21.408;2023-02-20T16:40:19;10.32;;;4.82;;
78312;SDS011;67568;47.438;21.408;2023-02-20T16:42:45;13.67;;;4.80;;
78312;SDS011;67568;47.438;21.408;2023-02-20T16:45:13;11.75;;;5.13;;
78312;SDS011;67568;47.438;21.408;2023-02-20T16:47:51;13.60;;;5.10;;
78312;SDS011;67568;47.438;21.408;2023-02-20T16:50:20;10.68;;;4.60;;
78312;SDS011;67568;47.438;21.408;2023-02-20T16:52:52;13.45;;;5.03;;
78312;SDS011;67568;47.438;21.408;2023-02-20T16:57:48;10.60;;;5.03;;
78312;SDS011;67568;47.438;21.408;2023-02-20T17:00:15;9.77;;;4.43;;
78312;SDS011;67568;47.438;21.408;2023-02-20T17:02:43;12.52;;;4.78;;
78312;SDS011;67568;47.438;21.408;2023-02-20T17:05:11;10.55;;;4.68;;
78312;SDS011;67568;47.438;21.408;2023-02-20T17:07:39;13.48;;;4.80;;